Time;durP1;ratioP1;P1;durP2;ratioP2;P2;SDS_P1;SDS_P2;PMS_P1;PMS_P2;Temp;Humidity;BMP_temperature;BMP_pressure;BME280_temperature;BME280_humidity;BME280_pressure;Samples;Min_cycle;Max_cycle;Signal;HPM_P1;HPM_P2
2021/01/25 00:01:13;;;;;;;4.40;2.33;;;;;;;0.91;74.79;96014.22;10540566;28;20126;-73
2021/01/25 00:06:33;;;;;;;3.30;2.47;;;;;;;1.14;74.44;96028.34;10540595;28;20056;-74
2021/01/25 00:11:53;;;;;;;3.40;2.40;;;;;;;1.30;74.12;96035.06;10540925;28;20135;-73
2021/01/25 00:17:13;;;;;;;2.85;1.98;;;;;;;1.44;74.06;96035.38;10512183;28;20494;-73
2021/01/25 00:22:33;;;;;;;3.65;2.28;;;;;;;1.48;74.22;96032.22;10517673;28;20064;-73
2021/01/25 00:27:53;;;;;;;4.10;2.55;;;;;;;1.47;74.11;96028.03;10534403;28;20110;-73
2021/01/25 00:33:13;;;;;;;4.55;2.50;;;;;;;1.50;73.88;96029.63;10548020;28;20056;-73
2021/01/25 00:38:33;;;;;;;3.00;2.17;;;;;;;1.52;74.52;96035.28;10519563;28;20521;-73
2021/01/25 00:43:53;;;;;;;3.55;2.03;;;;;;;1.56;74.03;96046.59;10534243;28;20063;-73
2021/01/25 00:49:12;;;;;;;3.83;2.58;;;;;;;1.64;73.78;96044.41;10533347;28;20055;-73
2021/01/25 00:54:32;;;;;;;3.33;1.92;;;;;;;1.73;74.13;96049.22;10532828;28;20060;-73
2021/01/25 00:59:52;;;;;;;3.90;2.50;;;;;;;1.75;73.88;96060.38;10546713;28;20177;-73
2021/01/25 01:05:12;;;;;;;3.72;2.17;;;;;;;1.79;74.21;96048.94;10546698;28;20089;-73
2021/01/25 01:10:32;;;;;;;3.50;2.22;;;;;;;1.82;73.90;96059.50;10518038;28;20063;-73
2021/01/25 01:15:53;;;;;;;5.13;2.63;;;;;;;1.83;74.12;96074.72;10533173;28;20060;-74
2021/01/25 01:21:15;;;;;;;3.10;2.28;;;;;;;1.85;73.38;96069.38;10546715;28;20080;-73
2021/01/25 01:26:35;;;;;;;4.30;2.60;;;;;;;1.90;74.07;96079.38;10518765;28;20056;-73
2021/01/25 01:31:55;;;;;;;3.08;2.20;;;;;;;1.89;73.81;96077.91;10545117;28;20122;-74
2021/01/25 01:37:15;;;;;;;3.33;2.35;;;;;;;1.88;73.46;96073.72;10518413;28;20060;-73
2021/01/25 01:42:35;;;;;;;2.90;2.17;;;;;;;1.94;73.94;96079.69;10531176;28;20060;-73
2021/01/25 01:47:56;;;;;;;2.83;2.05;;;;;;;1.96;73.72;96081.84;10530727;28;20060;-74
2021/01/25 01:53:16;;;;;;;3.40;2.35;;;;;;;1.96;73.48;96084.59;10544802;28;20136;-73
2021/01/25 01:58:36;;;;;;;4.25;2.70;;;;;;;1.99;73.64;96084.16;10545528;28;20119;-74
2021/01/25 02:03:56;;;;;;;2.53;1.85;;;;;;;1.98;73.77;96079.97;10528531;28;20063;-74
2021/01/25 02:09:16;;;;;;;3.40;2.42;;;;;;;1.97;73.36;96075.75;10529716;28;20056;-73
2021/01/25 02:14:36;;;;;;;2.90;2.10;;;;;;;1.98;73.35;96079.97;10516890;28;20181;-73
2021/01/25 02:20:15;;;;;;;2.65;2.40;;;;;;;1.97;73.55;96086.06;10502229;28;20056;-73
2021/01/25 02:25:42;;;;;;;3.88;2.88;;;;;;;1.96;73.38;96082.56;10530361;28;20060;-73
2021/01/25 02:31:03;;;;;;;3.33;2.33;;;;;;;1.97;73.71;96080.53;10530108;28;20134;-74
2021/01/25 02:36:23;;;;;;;4.20;2.70;;;;;;;1.99;73.16;96080.69;10528921;28;20529;-73
2021/01/25 02:41:43;;;;;;;3.60;2.63;;;;;;;2.01;73.48;96078.81;10529132;28;20502;-73
2021/01/25 02:47:03;;;;;;;3.47;2.60;;;;;;;1.99;73.44;96086.91;10529669;28;20091;-73
2021/01/25 02:52:23;;;;;;;3.90;2.75;;;;;;;1.85;73.49;96082.41;10542328;28;20122;-73
2021/01/25 02:57:42;;;;;;;4.70;2.38;;;;;;;1.83;73.52;96082.97;10529324;28;20129;-73
2021/01/25 03:03:03;;;;;;;3.50;2.50;;;;;;;1.82;73.40;96081.53;10527745;28;20060;-73
2021/01/25 03:08:25;;;;;;;3.90;2.75;;;;;;;1.68;73.23;96072.22;10514817;28;20398;-73
2021/01/25 03:13:45;;;;;;;4.20;2.70;;;;;;;1.56;73.37;96069.31;10527605;28;20068;-74
2021/01/25 03:19:05;;;;;;;4.50;2.63;;;;;;;1.47;73.78;96069.28;10513379;28;20048;-73
2021/01/25 03:24:25;;;;;;;4.32;3.28;;;;;;;1.44;73.84;96073.88;10527576;28;20067;-73
2021/01/25 03:29:45;;;;;;;4.22;3.13;;;;;;;1.43;73.61;96064.91;10527947;28;20425;-73
2021/01/25 03:35:05;;;;;;;4.18;2.95;;;;;;;1.43;73.66;96061.44;10512996;28;20056;-73
2021/01/25 03:40:25;;;;;;;5.20;3.10;;;;;;;1.48;73.75;96070.72;10514234;28;20060;-73
2021/01/25 03:45:45;;;;;;;4.25;3.30;;;;;;;1.48;74.15;96065.22;10527968;28;20056;-73
2021/01/25 03:51:05;;;;;;;3.55;2.95;;;;;;;1.48;73.60;96065.94;10541414;28;20526;-74
2021/01/25 03:56:25;;;;;;;5.32;3.47;;;;;;;1.52;73.50;96071.03;10505688;28;20056;-73
2021/01/25 04:01:45;;;;;;;5.15;3.53;;;;;;;1.49;73.72;96072.91;10549493;28;20109;-73
2021/01/25 04:07:05;;;;;;;4.75;3.65;;;;;;;1.52;73.55;96076.53;10534505;28;20104;-73
2021/01/25 04:12:28;;;;;;;5.30;3.33;;;;;;;1.52;73.71;96077.25;10549614;28;20090;-73
2021/01/25 04:17:47;;;;;;;6.18;4.13;;;;;;;1.56;73.50;96077.56;10549753;28;20060;-73
2021/01/25 04:23:07;;;;;;;5.10;3.60;;;;;;;1.58;73.58;96074.97;10548435;28;20448;-73
2021/01/25 04:28:27;;;;;;;4.97;3.60;;;;;;;1.68;72.92;96083.25;10548244;28;20067;-74
2021/01/25 04:33:47;;;;;;;5.28;4.50;;;;;;;1.68;73.04;96081.22;10549043;28;20138;-74
2021/01/25 04:39:07;;;;;;;5.18;4.20;;;;;;;1.64;73.02;96080.91;10491797;28;20507;-73
2021/01/25 04:44:27;;;;;;;5.45;4.25;;;;;;;1.61;73.39;96084.81;10519212;28;20064;-74
2021/01/25 04:49:47;;;;;;;7.53;4.35;;;;;;;1.49;73.10;96085.94;10505861;28;20056;-73
2021/01/25 04:55:07;;;;;;;6.15;4.88;;;;;;;1.43;73.09;96088.94;10532958;28;20056;-73
2021/01/25 05:00:27;;;;;;;4.78;4.13;;;;;;;1.30;73.10;96090.03;10546839;28;20124;-73
2021/01/25 05:05:46;;;;;;;6.30;4.38;;;;;;;1.24;73.48;96094.34;10547891;28;20449;-73
2021/01/25 05:11:16;;;;;;;6.13;4.45;;;;;;;1.24;72.99;96100.56;10547909;28;20056;-73
2021/01/25 05:16:36;;;;;;;7.97;5.00;;;;;;;1.17;73.09;96104.16;10547464;28;20066;-73
2021/01/25 05:21:56;;;;;;;8.05;5.72;;;;;;;1.16;73.40;96110.97;10543395;28;20093;-73
2021/01/25 05:27:29;;;;;;;7.68;5.82;;;;;;;1.18;73.09;96108.38;10504010;28;20063;-72
2021/01/25 05:32:54;;;;;;;7.70;5.50;;;;;;;1.14;73.07;96110.78;10503039;28;20068;-78
2021/01/25 05:38:14;;;;;;;;;;;;;;;1.00;73.30;96113.19;10503663;28;20092;-77
2021/01/25 05:43:34;;;;;;;7.93;5.55;;;;;;;0.88;73.26;96111.53;10503266;28;19924;-77
2021/01/25 05:48:57;;;;;;;7.40;5.25;;;;;;;0.87;73.07;96110.81;10503328;28;20064;-77
2021/01/25 05:54:20;;;;;;;7.53;5.32;;;;;;;0.88;73.09;96119.78;10488655;28;20078;-76
2021/01/25 05:59:39;;;;;;;6.75;4.85;;;;;;;0.88;73.36;96112.25;10503577;28;20083;-76
2021/01/25 06:04:59;;;;;;;7.75;5.60;;;;;;;0.89;73.39;96121.22;10501899;28;20064;-76
2021/01/25 06:10:24;;;;;;;8.93;5.90;;;;;;;0.85;73.54;96133.31;10488199;28;20063;-76
2021/01/25 06:15:44;;;;;;;;;;;;;;;0.88;73.03;96139.00;10508933;28;20060;-76
2021/01/25 06:21:05;;;;;;;8.93;5.32;;;;;;;0.84;73.17;96140.13;10529650;28;19943;-76
2021/01/25 06:26:30;;;;;;;10.25;5.95;;;;;;;0.86;73.19;96154.00;10515108;28;20486;-76
2021/01/25 06:31:57;;;;;;;8.98;6.47;;;;;;;0.86;72.60;96158.78;10514890;28;20056;-76
2021/01/25 06:37:17;;;;;;;9.73;6.03;;;;;;;0.79;73.02;96167.84;10514580;28;20055;-76
2021/01/25 06:42:42;;;;;;;8.93;6.00;;;;;;;0.81;73.07;96171.47;10543531;28;20087;-76
2021/01/25 06:48:02;;;;;;;9.65;5.85;;;;;;;0.77;72.62;96179.41;10516211;28;20166;-76
2021/01/25 06:53:26;;;;;;;9.27;6.22;;;;;;;0.74;72.66;96179.81;10500318;28;20055;-76
2021/01/25 06:58:50;;;;;;;9.83;6.37;;;;;;;0.72;72.94;96183.13;10543408;28;20509;-76
2021/01/25 07:04:14;;;;;;;8.00;5.97;;;;;;;0.87;72.40;96187.72;10527454;28;20127;-76
2021/01/25 07:09:33;;;;;;;9.55;6.18;;;;;;;0.99;72.95;96199.66;10527187;28;20148;-76
2021/01/25 07:14:53;;;;;;;8.15;6.07;;;;;;;1.04;72.75;96204.16;10451263;28;20140;-77
2021/01/25 07:20:13;;;;;;;7.63;5.72;;;;;;;1.21;72.40;96208.91;10478655;28;20106;-76
2021/01/25 07:25:33;;;;;;;7.95;5.82;;;;;;;1.51;71.79;96210.53;10527191;28;20066;-76
2021/01/25 07:30:53;;;;;;;8.45;5.63;;;;;;;2.03;72.07;96215.88;10542333;28;20063;-76
2021/01/25 07:36:14;;;;;;;8.02;6.25;;;;;;;3.03;72.16;96221.09;10544226;28;20060;-76
2021/01/25 07:41:37;;;;;;;9.80;5.72;;;;;;;4.10;71.63;96218.81;10541534;28;20505;-74
2021/01/25 07:47:04;;;;;;;9.13;6.05;;;;;;;4.10;68.63;96229.88;10541910;28;20064;-74
2021/01/25 07:52:24;;;;;;;7.93;5.82;;;;;;;3.57;69.29;96231.03;10540662;28;20414;-74
2021/01/25 07:57:45;;;;;;;6.57;5.68;;;;;;;3.86;69.75;96228.19;10540516;28;20060;-74
2021/01/25 08:03:22;;;;;;;7.18;5.45;;;;;;;5.25;70.41;96238.75;10540538;28;20056;-74
2021/01/25 08:08:45;;;;;;;8.27;5.82;;;;;;;5.84;68.63;96239.63;10541267;28;20417;-74
2021/01/25 08:14:32;;;;;;;7.65;6.10;;;;;;;14.00;72.30;96249.16;10542571;28;20060;-74
2021/01/25 08:20:04;;;;;;;6.63;5.38;;;;;;;21.76;57.06;96244.16;10525764;28;20059;-74
2021/01/25 08:25:26;;;;;;;6.28;5.13;;;;;;;26.42;46.39;96245.72;10528353;28;20067;-73
2021/01/25 08:30:47;;;;;;;7.78;6.60;;;;;;;30.48;34.66;96247.97;10540160;28;20056;-74
2021/01/25 08:36:08;;;;;;;4.97;4.43;;;;;;;35.04;25.20;96244.09;10498442;28;20448;-74
2021/01/25 08:41:32;;;;;;;4.38;3.60;;;;;;;36.67;17.99;96247.94;10541764;28;20056;-74
2021/01/25 08:46:52;;;;;;;5.20;4.15;;;;;;;38.22;14.47;96249.88;10547872;28;20464;-74
2021/01/25 08:52:31;;;;;;;5.68;4.50;;;;;;;35.68;13.07;96253.63;10548729;28;20064;-75
2021/01/25 08:57:54;;;;;;;3.97;3.30;;;;;;;33.92;12.12;96252.63;10547843;28;20419;-74
2021/01/25 09:03:15;;;;;;;5.35;3.20;;;;;;;33.66;12.63;96258.16;10546057;28;20146;-76
2021/01/25 09:08:34;;;;;;;4.13;3.47;;;;;;;30.53;12.68;96259.38;10517351;28;20058;-77
2021/01/25 09:13:55;;;;;;;4.00;3.60;;;;;;;27.10;15.11;96262.31;10545434;28;20056;-78
2021/01/25 09:19:15;;;;;;;4.25;3.15;;;;;;;30.18;13.99;96272.03;10546725;28;20529;-74
2021/01/25 09:24:35;;;;;;;6.88;3.15;;;;;;;25.74;14.94;96276.88;10546560;28;20099;-75
2021/01/25 09:29:55;;;;;;;4.38;3.83;;;;;;;25.22;16.18;96281.16;10546690;28;20060;-75
2021/01/25 09:35:16;;;;;;;5.30;3.67;;;;;;;29.53;13.94;96283.44;10545835;28;20122;-75
2021/01/25 09:40:36;;;;;;;3.45;3.10;;;;;;;25.78;14.24;96287.56;10531750;28;20055;-84
2021/01/25 09:45:55;;;;;;;4.22;3.70;;;;;;;21.63;16.46;96282.50;10516879;28;20060;-85
2021/01/25 09:51:15;;;;;;;4.20;3.50;;;;;;;19.03;18.28;96285.06;10530346;28;20056;-85
2021/01/25 09:56:35;;;;;;;4.20;3.72;;;;;;;18.19;20.11;96288.19;10506066;28;20052;-85
2021/01/25 10:01:57;;;;;;;4.82;3.60;;;;;;;18.83;19.65;96276.34;10531404;28;20056;-82
2021/01/25 10:07:39;;;;;;;5.20;4.38;;;;;;;17.71;20.72;96292.38;10512890;22;21084;-79
2021/01/25 10:26:08;;;;;;;4.85;3.60;;;;;;;23.45;20.56;96297.75;10116527;24;20054;-85
2021/01/25 10:31:28;;;;;;;5.18;3.92;;;;;;;21.71;19.74;96294.56;9911043;29;20062;-84
2021/01/25 10:36:52;;;;;;;4.97;3.53;;;;;;;20.40;20.84;96295.47;9923172;29;20059;-83
2021/01/25 10:42:12;;;;;;;4.53;3.50;;;;;;;19.36;21.40;96291.06;9934860;29;20495;-78
2021/01/25 10:47:32;;;;;;;3.72;2.97;;;;;;;18.03;21.92;96297.81;9936917;29;20059;-77
2021/01/25 10:52:54;;;;;;;4.38;3.25;;;;;;;16.61;22.66;96292.41;9953864;29;20517;-78
2021/01/25 10:58:15;;;;;;;5.28;3.60;;;;;;;15.90;23.52;96285.16;9938655;29;20545;-77
2021/01/25 11:03:36;;;;;;;4.43;4.00;;;;;;;15.71;24.02;96293.16;9956009;29;20604;-78
2021/01/25 11:08:56;;;;;;;4.55;3.53;;;;;;;15.51;24.34;96287.03;9951904;29;20094;-76
2021/01/25 11:14:17;;;;;;;4.57;3.60;;;;;;;15.18;24.44;96293.91;9948963;29;20123;-75
2021/01/25 11:19:37;;;;;;;8.18;4.85;;;;;;;15.43;25.22;96286.81;9946983;29;20101;-76
2021/01/25 11:24:57;;;;;;;5.13;4.03;;;;;;;15.59;25.33;96290.03;9934268;29;20065;-76
2021/01/25 11:30:17;;;;;;;4.00;3.28;;;;;;;15.46;25.20;96299.56;9949159;29;20066;-76
2021/01/25 11:35:37;;;;;;;13.65;6.82;;;;;;;15.30;25.55;96304.75;10272221;24;20135;-79
2021/01/25 11:41:12;;;;;;;5.22;4.05;;;;;;;14.85;25.82;96309.16;9940508;29;20077;-78
2021/01/25 11:46:39;;;;;;;8.98;4.10;;;;;;;14.18;26.27;96299.47;9973379;29;20138;-79
2021/01/25 11:52:05;;;;;;;45.63;6.38;;;;;;;13.55;26.77;96302.41;9949060;29;20058;-78
2021/01/25 11:57:26;;;;;;;20.42;5.07;;;;;;;12.61;27.32;96304.72;9968797;29;20074;-79
2021/01/25 12:02:49;;;;;;;8.98;4.55;;;;;;;12.00;27.88;96302.44;9954604;29;20067;-79
2021/01/25 12:08:11;;;;;;;21.33;6.68;;;;;;;11.51;28.65;96297.69;9950137;29;20094;-79
2021/01/25 12:13:31;;;;;;;26.38;5.50;;;;;;;11.17;28.79;96297.69;9963753;29;20128;-78
2021/01/25 12:18:52;;;;;;;14.63;5.10;;;;;;;11.12;29.04;96304.47;9954573;29;20088;-79
2021/01/25 12:24:14;;;;;;;8.55;3.83;;;;;;;11.02;29.44;96304.03;9958275;29;20063;-80
2021/01/25 12:29:47;;;;;;;11.98;4.75;;;;;;;10.98;30.06;96306.66;9936339;29;20138;-76
2021/01/25 12:35:09;;;;;;;20.15;5.15;;;;;;;11.01;30.01;96304.69;9952825;29;20510;-75
2021/01/25 12:40:29;;;;;;;22.20;6.13;;;;;;;11.04;30.30;96304.13;9940024;29;20503;-78
2021/01/25 12:45:49;;;;;;;7.18;4.05;;;;;;;10.84;30.35;96298.41;9952533;29;20510;-76
2021/01/25 13:56:42;;;;;;;179.50;14.25;;;;;;;6.97;34.54;96353.13;10517942;24;20080;-75
2021/01/25 14:02:03;;;;;;;37.78;4.78;;;;;;;6.69;35.30;96354.94;9912152;29;20426;-75
2021/01/25 14:07:23;;;;;;;289.67;23.50;;;;;;;6.57;35.26;96360.47;9924779;29;20071;-75
2021/01/25 14:12:43;;;;;;;110.20;9.98;;;;;;;6.61;35.73;96365.53;9949572;29;20463;-75
2021/01/25 14:18:03;;;;;;;301.05;21.05;;;;;;;6.55;35.74;96370.69;9936546;29;20174;-75
2021/01/25 14:23:23;;;;;;;17.98;4.20;;;;;;;6.58;36.14;96373.00;9949872;29;20503;-75
2021/01/25 14:28:44;;;;;;;10.27;2.85;;;;;;;6.34;36.14;96379.13;9950728;29;20583;-75
2021/01/25 14:34:04;;;;;;;6.65;2.58;;;;;;;6.15;36.56;96393.88;9925204;29;20115;-75
2021/01/25 14:39:25;;;;;;;4.88;3.03;;;;;;;5.73;37.25;96400.94;9934592;29;20481;-75
2021/01/25 14:44:45;;;;;;;6.72;3.97;;;;;;;5.32;37.34;96403.84;9935800;29;20094;-75
2021/01/25 14:50:28;;;;;;;6.40;3.92;;;;;;;5.00;38.40;96415.50;9935546;29;20066;-75
2021/01/25 14:55:48;;;;;;;6.85;4.63;;;;;;;4.64;39.11;96416.53;9871498;30;20083;-77
2021/01/25 15:01:07;;;;;;;6.55;4.80;;;;;;;4.31;39.96;96437.09;9870169;30;20508;-77
2021/01/25 15:06:27;;;;;;;7.68;5.25;;;;;;;3.97;40.80;96440.91;9845169;30;20155;-77
2021/01/25 15:11:47;;;;;;;10.07;6.57;;;;;;;3.70;41.90;96459.66;9844784;30;20087;-76
2021/01/25 15:17:07;;;;;;;11.45;6.82;;;;;;;3.55;41.07;96459.91;9858214;30;20407;-77
2021/01/25 15:22:26;;;;;;;9.45;6.57;;;;;;;3.38;41.98;96474.56;9856962;30;20493;-78
2021/01/25 15:27:47;;;;;;;8.52;6.28;;;;;;;3.22;42.82;96474.06;9935320;29;20058;-77
2021/01/25 15:33:07;;;;;;;11.55;6.72;;;;;;;3.08;44.06;96493.00;9935455;29;20062;-77
2021/01/25 15:38:27;;;;;;;12.13;7.63;;;;;;;2.98;44.38;96495.00;9936686;29;20062;-78
2021/01/25 15:43:47;;;;;;;11.77;6.68;;;;;;;2.79;44.39;96498.41;9934366;29;20070;-78
2021/01/25 15:49:07;;;;;;;14.50;7.03;;;;;;;2.71;44.28;96508.09;9921737;29;20115;-77
2021/01/25 15:54:28;;;;;;;8.52;6.30;;;;;;;2.56;44.75;96511.75;9937506;29;20551;-78
2021/01/25 15:59:48;;;;;;;9.35;6.65;;;;;;;2.37;45.92;96523.38;9944048;29;20211;-79
2021/01/25 16:05:09;;;;;;;9.02;7.05;;;;;;;2.24;45.75;96529.22;9940756;29;20583;-77
2021/01/25 16:10:29;;;;;;;9.93;6.40;;;;;;;2.13;46.02;96532.47;9962542;29;20062;-80
2021/01/25 16:15:49;;;;;;;9.00;6.40;;;;;;;1.95;46.61;96537.97;9952804;29;20205;-76
2021/01/25 16:21:09;;;;;;;11.77;6.65;;;;;;;1.87;48.16;96545.56;9953667;29;20508;-79
2021/01/25 16:26:29;;;;;;;11.80;7.50;;;;;;;1.84;47.76;96545.97;9941587;29;20511;-79
2021/01/25 16:31:48;;;;;;;10.73;7.70;;;;;;;1.75;48.31;96555.59;9963697;29;20096;-82
2021/01/25 16:37:08;;;;;;;10.52;7.38;;;;;;;1.73;48.00;96569.16;9954797;29;20127;-79
2021/01/25 16:42:28;;;;;;;9.85;6.82;;;;;;;1.70;49.28;96573.78;9952523;29;20071;-76
2021/01/25 16:47:48;;;;;;;12.63;7.30;;;;;;;1.72;49.23;96578.72;9974882;29;20073;-81
2021/01/25 16:53:14;;;;;;;;;;;;;;;1.71;53.10;96582.75;9978324;29;20075;-82
2021/01/25 16:58:40;;;;;;;10.65;7.05;;;;;;;1.63;49.30;96588.31;9964188;29;19925;-79
2021/01/25 17:04:01;;;;;;;9.90;7.32;;;;;;;1.67;49.80;96587.94;9955285;29;20074;-77
2021/01/25 17:09:21;;;;;;;11.73;7.35;;;;;;;1.75;50.12;96593.38;9956817;29;20074;-80
2021/01/25 17:14:55;;;;;;;11.23;7.35;;;;;;;1.86;49.91;96593.66;10134366;24;20120;-78
2021/01/25 17:20:23;;;;;;;12.73;8.27;;;;;;;1.90;50.25;96598.75;9927166;29;20062;-77
2021/01/25 17:25:43;;;;;;;13.68;8.30;;;;;;;1.92;53.00;96612.66;9951716;29;20097;-76
2021/01/25 17:31:02;;;;;;;13.18;8.30;;;;;;;1.96;51.49;96619.25;9924868;29;20537;-75
2021/01/25 17:36:22;;;;;;;14.30;7.93;;;;;;;1.99;51.48;96618.09;9941703;29;20092;-80
2021/01/25 17:41:42;;;;;;;13.70;8.15;;;;;;;2.04;51.27;96623.97;9957701;29;20090;-77
2021/01/25 17:47:02;;;;;;;11.98;8.27;;;;;;;2.01;51.35;96625.78;9937181;29;20115;-75
2021/01/25 17:52:22;;;;;;;13.60;8.23;;;;;;;1.92;51.67;96626.41;9938543;29;20066;-79
2021/01/25 17:57:42;;;;;;;11.77;7.00;;;;;;;1.83;51.69;96633.28;9948232;29;20123;-78
2021/01/25 18:03:02;;;;;;;10.25;6.60;;;;;;;1.70;51.72;96637.06;9942486;29;20062;-77
2021/01/25 18:08:22;;;;;;;10.35;6.35;;;;;;;1.58;52.13;96640.81;9934615;29;20066;-79
2021/01/25 18:13:42;;;;;;;8.50;6.10;;;;;;;1.49;52.13;96646.94;9974733;29;20096;-80
2021/01/25 18:25:35;;;;;;;12.70;7.85;;;;;;;1.32;52.50;96661.31;10088446;24;20071;-76
2021/01/25 18:30:56;;;;;;;7.00;4.85;;;;;;;1.24;52.89;96671.63;9908643;29;20067;-74
2021/01/25 18:36:16;;;;;;;8.63;4.68;;;;;;;1.15;52.55;96676.44;9933380;29;20065;-75
2021/01/25 18:41:36;;;;;;;8.07;4.63;;;;;;;1.09;52.79;96681.44;9934730;29;20066;-75
2021/01/25 18:46:55;;;;;;;7.00;3.95;;;;;;;0.98;52.92;96689.34;9934658;29;20123;-75
2021/01/25 18:52:15;;;;;;;8.50;4.63;;;;;;;0.89;52.32;96692.69;9934583;29;20098;-75
2021/01/25 18:57:35;;;;;;;7.28;4.60;;;;;;;0.80;53.26;96688.50;9948332;29;20116;-75
2021/01/25 19:02:55;;;;;;;10.38;5.47;;;;;;;0.77;53.18;96693.09;9947551;29;20066;-76
2021/01/25 19:08:15;;;;;;;10.40;4.72;;;;;;;0.75;53.16;96701.13;9933762;29;20067;-76
2021/01/25 19:13:35;;;;;;;6.68;4.10;;;;;;;0.81;53.30;96706.44;9947442;29;20128;-75
2021/01/25 19:18:55;;;;;;;6.82;4.05;;;;;;;0.84;53.17;96716.31;9947118;29;20063;-75
2021/01/25 19:24:19;;;;;;;7.82;4.85;;;;;;;0.90;53.67;96718.88;9946388;29;20066;-75
2021/01/25 19:29:39;;;;;;;11.77;7.10;;;;;;;0.99;53.15;96726.53;9933889;29;20530;-75
2021/01/25 19:34:59;;;;;;;10.65;6.80;;;;;;;1.12;53.12;96740.78;9940304;29;20063;-77
2021/01/25 19:40:25;;;;;;;11.98;6.60;;;;;;;1.28;53.24;96743.47;9908249;29;20063;-77
2021/01/25 19:45:47;;;;;;;8.20;5.03;;;;;;;1.33;53.07;96754.25;9921075;29;20066;-77
2021/01/25 19:51:07;;;;;;;6.22;3.92;;;;;;;1.44;52.74;96764.09;9946442;29;20171;-77
2021/01/25 19:56:27;;;;;;;5.82;3.78;;;;;;;1.51;52.92;96766.09;9932830;29;20149;-77
2021/01/25 20:01:46;;;;;;;6.55;4.28;;;;;;;1.55;52.74;96779.47;9932598;29;20067;-76
2021/01/25 20:07:06;;;;;;;7.03;3.75;;;;;;;1.64;52.38;96779.63;9932582;29;20094;-77
2021/01/25 20:12:27;;;;;;;5.68;2.90;;;;;;;1.69;52.75;96789.66;9931592;29;20093;-78
2021/01/25 20:17:47;;;;;;;6.40;3.35;;;;;;;1.72;52.33;96793.31;9921055;29;20062;-76
2021/01/25 20:23:12;;;;;;;4.72;2.97;;;;;;;1.74;52.32;96796.25;9945990;29;20426;-77
2021/01/25 20:28:32;;;;;;;4.87;2.80;;;;;;;1.78;52.75;96802.09;9923551;29;20075;-78
2021/01/25 20:33:52;;;;;;;5.47;2.50;;;;;;;1.87;52.31;96814.53;9908527;29;20820;-78
2021/01/25 20:39:12;;;;;;;6.55;3.78;;;;;;;1.92;52.05;96817.06;9915581;29;20108;-76
2021/01/25 20:44:32;;;;;;;5.07;3.25;;;;;;;1.85;51.92;96822.63;9915394;30;20063;-78
2021/01/25 20:49:52;;;;;;;5.30;3.45;;;;;;;1.58;52.12;96830.63;9924032;29;20400;-76
2021/01/25 20:55:12;;;;;;;4.28;2.90;;;;;;;1.29;52.67;96825.41;9934644;29;20141;-76
2021/01/25 21:00:34;;;;;;;6.18;3.35;;;;;;;0.95;52.91;96838.84;9947919;29;20507;-74
2021/01/25 21:05:58;;;;;;;6.00;3.50;;;;;;;0.74;53.05;96839.78;9938389;29;20070;-74
2021/01/25 21:11:18;;;;;;;7.15;3.92;;;;;;;0.61;53.47;96845.47;9951537;29;20464;-75
2021/01/25 21:16:38;;;;;;;7.68;3.90;;;;;;;0.59;53.07;96853.53;9935437;29;20063;-72
2021/01/25 21:21:59;;;;;;;7.80;4.68;;;;;;;0.62;54.39;96855.16;9949268;29;20062;-74
2021/01/25 21:27:22;;;;;;;6.90;4.78;;;;;;;0.63;54.29;96858.66;9915490;29;20074;-78
2021/01/25 21:32:41;;;;;;;7.35;5.00;;;;;;;0.67;54.95;96862.47;9953902;29;20063;-76
2021/01/25 21:38:02;;;;;;;8.82;5.28;;;;;;;0.64;54.73;96874.56;9950503;29;20070;-74
2021/01/25 21:43:22;;;;;;;8.55;5.45;;;;;;;0.66;53.80;96885.00;9924192;29;20063;-73
2021/01/25 21:48:42;;;;;;;11.43;6.30;;;;;;;0.64;53.85;96891.06;9936034;29;20066;-73
2021/01/25 21:54:02;;;;;;;10.20;6.38;;;;;;;0.66;55.19;96893.97;9923940;29;20073;-73
2021/01/25 21:59:22;;;;;;;14.00;8.80;;;;;;;0.62;54.14;96901.13;9912037;29;20572;-74
2021/01/25 22:04:45;;;;;;;11.77;7.85;;;;;;;0.55;54.50;96910.81;9913190;29;20456;-74
2021/01/25 22:10:06;;;;;;;12.80;7.80;;;;;;;0.50;54.72;96922.72;9925704;29;20074;-74
2021/01/25 22:15:29;;;;;;;13.57;8.20;;;;;;;0.45;54.80;96918.13;9925009;29;20419;-74
2021/01/25 22:20:48;;;;;;;14.23;8.63;;;;;;;0.43;54.88;96921.41;9912243;29;20065;-74
2021/01/25 22:26:08;;;;;;;14.73;9.18;;;;;;;0.48;54.81;96928.00;9936958;29;20069;-74
2021/01/25 22:31:28;;;;;;;15.48;9.10;;;;;;;0.49;55.00;96935.00;9923780;29;20407;-74
2021/01/25 22:36:51;;;;;;;13.32;9.13;;;;;;;0.50;55.13;96936.44;9924750;29;20483;-73
2021/01/25 22:42:12;;;;;;;15.05;9.38;;;;;;;0.50;55.95;96939.19;9911915;29;20066;-74
2021/01/25 22:47:33;;;;;;;14.43;8.75;;;;;;;0.46;55.71;96941.56;9910735;29;20066;-74
2021/01/25 22:52:53;;;;;;;13.35;8.57;;;;;;;0.38;57.06;96938.06;9949946;29;20067;-73
2021/01/25 22:58:12;;;;;;;14.05;8.43;;;;;;;0.31;56.50;96941.53;9910413;29;20142;-74
2021/01/25 23:03:32;;;;;;;12.32;8.27;;;;;;;0.31;56.78;96944.28;9909782;29;20138;-73
2021/01/25 23:08:52;;;;;;;12.90;8.48;;;;;;;0.36;56.11;96948.84;9909963;29;20066;-74
2021/01/25 23:14:12;;;;;;;14.10;8.70;;;;;;;0.41;56.99;96959.69;9910064;29;20101;-74
2021/01/25 23:19:33;;;;;;;13.15;8.23;;;;;;;0.46;57.14;96969.75;9948405;29;20123;-74
2021/01/25 23:24:52;;;;;;;16.35;8.20;;;;;;;0.44;58.34;96963.34;9910261;29;20392;-74
2021/01/25 23:30:30;;;;;;;11.68;8.18;;;;;;;0.46;57.41;96977.97;9909489;29;20414;-74
2021/01/25 23:35:53;;;;;;;12.40;7.82;;;;;;;0.40;58.61;96988.41;9911261;29;20067;-74
2021/01/25 23:41:13;;;;;;;14.35;8.07;;;;;;;0.48;57.90;96985.66;9922075;29;20511;-73
2021/01/25 23:46:33;;;;;;;11.18;7.70;;;;;;;0.55;57.54;96982.94;9934398;29;20067;-74
2021/01/25 23:51:52;;;;;;;11.48;7.05;;;;;;;0.62;57.72;96989.03;9935340;29;20399;-73
2021/01/25 23:57:13;;;;;;;7.80;5.65;;;;;;;0.72;58.39;96993.44;9922380;29;20067;-73
